Time;durP1;ratioP1;P1;durP2;ratioP2;P2;SDS_P1;SDS_P2;PMS_P1;PMS_P2;Temp;Humidity;BMP_temperature;BMP_pressure;BME280_temperature;BME280_humidity;BME280_pressure;Samples;Min_cycle;Max_cycle;Signal;HPM_P1;HPM_P2
2023/10/20 00:01:45;;;;;;;4.63;4.23;;;;;;;22.18;57.68;94960.59;5015603;28;20222;-30
2023/10/20 00:04:11;;;;;;;4.87;4.47;;;;;;;22.18;57.99;94952.91;5005117;28;20237;-27
2023/10/20 00:06:39;;;;;;;5.10;4.60;;;;;;;22.17;58.00;94943.56;5009206;28;20304;-26
2023/10/20 00:09:06;;;;;;;4.43;4.13;;;;;;;22.18;58.04;94945.25;5010629;28;20256;-27
2023/10/20 00:11:33;;;;;;;4.77;4.37;;;;;;;22.18;58.04;94943.53;5008886;28;20219;-26
2023/10/20 00:14:00;;;;;;;5.10;4.60;;;;;;;22.18;58.00;94937.56;5012220;28;20199;-26
2023/10/20 00:16:27;;;;;;;5.03;4.60;;;;;;;22.17;57.97;94936.72;5014728;28;20210;-26
2023/10/20 00:18:53;;;;;;;5.30;4.73;;;;;;;22.17;58.11;94929.03;5015055;28;20572;-31
2023/10/20 00:21:21;;;;;;;5.00;4.57;;;;;;;22.18;58.02;94927.34;5011125;28;20302;-27
2023/10/20 00:23:47;;;;;;;4.80;4.40;;;;;;;22.18;57.88;94923.09;5007584;28;20202;-31
2023/10/20 00:26:14;;;;;;;4.83;4.43;;;;;;;22.17;58.04;94916.25;5013104;28;20262;-26
2023/10/20 00:28:41;;;;;;;4.67;4.30;;;;;;;22.18;58.00;94910.28;5001448;28;20594;-26
2023/10/20 00:31:07;;;;;;;5.00;4.60;;;;;;;22.18;58.08;94909.44;5012116;28;20304;-26
2023/10/20 00:33:34;;;;;;;4.87;4.47;;;;;;;22.17;57.90;94905.19;5012297;28;20206;-29
2023/10/20 00:36:01;;;;;;;5.83;4.73;;;;;;;22.16;57.94;94899.22;5003000;28;20198;-27
2023/10/20 00:38:28;;;;;;;4.70;4.30;;;;;;;22.17;58.02;94895.78;5014100;28;20261;-35
2023/10/20 00:40:54;;;;;;;4.80;4.40;;;;;;;22.17;57.97;94898.34;5001865;28;20203;-33
2023/10/20 00:43:21;;;;;;;5.37;4.87;;;;;;;22.17;58.23;94897.53;5009941;28;20205;-26
2023/10/20 00:45:48;;;;;;;4.50;4.10;;;;;;;22.17;58.18;94893.22;5005953;28;20654;-26
2023/10/20 00:48:15;;;;;;;4.87;4.47;;;;;;;22.18;58.05;94888.97;5010735;28;20212;-26
2023/10/20 00:50:43;;;;;;;4.77;4.37;;;;;;;22.17;57.98;94884.72;5005026;28;20286;-26
2023/10/20 00:53:10;;;;;;;4.77;4.30;;;;;;;22.18;57.98;94868.50;5010739;28;20222;-26
2023/10/20 00:55:36;;;;;;;4.73;4.33;;;;;;;22.17;57.92;94867.66;5003668;28;20678;-26
2023/10/20 00:58:03;;;;;;;4.67;4.27;;;;;;;22.16;58.04;94860.84;5003993;28;20296;-28
2023/10/20 01:00:30;;;;;;;4.97;4.57;;;;;;;22.18;57.90;94868.50;5005919;28;20194;-26
2023/10/20 01:02:57;;;;;;;5.13;4.73;;;;;;;22.18;58.08;94868.50;5011728;28;20221;-26
2023/10/20 01:05:24;;;;;;;5.10;4.70;;;;;;;22.19;58.01;94870.19;5005454;28;20198;-26
2023/10/20 01:07:50;;;;;;;4.80;4.40;;;;;;;22.17;57.93;94859.97;5008799;28;20213;-26
2023/10/20 01:10:18;;;;;;;5.27;4.77;;;;;;;22.18;58.15;94848.03;5013158;28;20202;-26
2023/10/20 01:12:44;;;;;;;4.30;4.00;;;;;;;22.17;57.99;94847.19;4998259;28;20218;-26
2023/10/20 01:15:14;;;;;;;5.13;4.73;;;;;;;22.17;58.00;94844.63;5014110;28;20628;-31
2023/10/20 01:17:40;;;;;;;4.87;4.47;;;;;;;22.17;58.06;94842.06;5008795;28;20688;-27
2023/10/20 01:20:08;;;;;;;4.70;4.30;;;;;;;22.18;57.96;94835.25;5011852;28;20199;-26
2023/10/20 01:22:34;;;;;;;4.27;3.93;;;;;;;22.17;58.40;94820.78;5008830;28;20226;-26
2023/10/20 01:25:01;;;;;;;4.33;3.93;;;;;;;22.17;58.16;94821.63;4998177;28;20207;-30
2023/10/20 01:27:28;;;;;;;4.90;4.50;;;;;;;22.13;57.94;94806.34;5004526;28;20740;-27
2023/10/20 01:29:55;;;;;;;5.20;4.70;;;;;;;22.17;58.08;94818.22;4999829;28;20211;-26
2023/10/20 01:32:21;;;;;;;4.37;4.00;;;;;;;22.17;58.15;94813.94;5010950;28;20660;-26
2023/10/20 01:34:48;;;;;;;4.70;4.30;;;;;;;22.18;58.01;94813.09;5008691;28;20234;-26
2023/10/20 01:37:15;;;;;;;5.20;4.70;;;;;;;22.14;57.99;94806.31;5012338;28;20205;-32
2023/10/20 01:39:41;;;;;;;5.23;4.83;;;;;;;22.18;58.16;94812.25;5010516;28;20289;-26
2023/10/20 01:42:08;;;;;;;4.53;4.13;;;;;;;22.18;57.98;94802.00;5013377;28;20936;-26
2023/10/20 01:44:35;;;;;;;5.47;4.97;;;;;;;22.17;58.17;94790.91;5013861;28;20222;-29
2023/10/20 01:47:01;;;;;;;5.00;4.60;;;;;;;22.17;58.31;94784.97;5005691;28;20222;-27
2023/10/20 01:49:28;;;;;;;4.90;4.50;;;;;;;22.10;58.05;94773.13;5011629;28;20623;-26
2023/10/20 01:51:55;;;;;;;4.80;4.40;;;;;;;22.16;58.13;94778.16;5007308;28;20237;-26
2023/10/20 01:54:21;;;;;;;4.97;4.57;;;;;;;22.17;57.97;94774.75;5008539;28;20199;-28
2023/10/20 01:56:48;;;;;;;4.87;4.17;;;;;;;22.16;58.08;94760.25;5013328;28;20201;-26
2023/10/20 01:59:15;;;;;;;4.47;4.07;;;;;;;22.17;58.03;94759.41;5012850;28;20202;-26
2023/10/20 02:01:42;;;;;;;4.53;4.23;;;;;;;22.17;58.15;94749.19;5003237;28;20306;-26
2023/10/20 02:04:08;;;;;;;4.83;4.43;;;;;;;22.17;58.03;94744.06;5005010;28;20289;-26
2023/10/20 02:06:35;;;;;;;4.67;4.27;;;;;;;22.17;58.09;94736.38;5001324;28;20211;-26
2023/10/20 02:09:02;;;;;;;4.83;4.43;;;;;;;22.17;58.10;94742.31;5005025;28;20204;-29
2023/10/20 02:11:28;;;;;;;4.20;3.90;;;;;;;22.17;58.17;94744.88;5012651;28;20222;-28
2023/10/20 02:13:57;;;;;;;4.70;4.30;;;;;;;22.18;58.01;94744.03;5001732;28;20285;-28
2023/10/20 02:16:24;;;;;;;5.30;4.80;;;;;;;22.18;58.08;94730.38;5004766;28;20199;-26
2023/10/20 02:18:50;;;;;;;4.77;4.37;;;;;;;22.17;58.20;94724.41;5001165;28;20209;-26
2023/10/20 02:21:17;;;;;;;5.07;4.67;;;;;;;22.17;58.25;94710.81;5009571;28;20248;-27
2023/10/20 02:23:44;;;;;;;4.50;4.10;;;;;;;22.17;58.29;94714.19;5010796;28;20207;-26
2023/10/20 02:26:11;;;;;;;4.57;4.17;;;;;;;22.17;58.31;94703.13;5002360;28;20250;-27
2023/10/20 02:28:37;;;;;;;4.90;4.50;;;;;;;22.16;57.70;94691.19;5009637;28;20677;-26
2023/10/20 02:31:11;;;;;;;4.80;4.40;;;;;;;22.15;58.18;94687.81;5001649;28;20642;-26
2023/10/20 02:33:38;;;;;;;5.17;4.77;;;;;;;22.08;58.02;94664.94;5012173;28;20285;-26
2023/10/20 02:36:05;;;;;;;4.13;3.80;;;;;;;22.16;58.21;94691.19;5000826;28;20214;-29
2023/10/20 02:38:32;;;;;;;5.00;4.50;;;;;;;22.16;58.06;94684.38;5005806;28;20249;-26
2023/10/20 02:40:59;;;;;;;4.90;4.50;;;;;;;22.16;58.18;94681.81;5003606;28;20680;-26
2023/10/20 02:43:26;;;;;;;5.20;4.70;;;;;;;22.18;58.24;94684.34;5012630;28;20252;-26
2023/10/20 02:45:54;;;;;;;4.73;4.33;;;;;;;22.18;58.16;94671.56;5012734;28;20556;-26
2023/10/20 02:48:21;;;;;;;4.80;4.40;;;;;;;22.17;58.14;94657.91;5000119;28;20248;-26
2023/10/20 02:50:48;;;;;;;5.00;4.60;;;;;;;22.18;58.08;94659.63;5002309;28;20678;-26
2023/10/20 02:53:15;;;;;;;5.10;4.60;;;;;;;22.19;58.35;94645.09;5011897;28;20219;-29
2023/10/20 02:55:42;;;;;;;5.03;4.53;;;;;;;22.17;58.13;94632.34;5007820;28;20602;-26
2023/10/20 02:58:11;;;;;;;5.10;4.70;;;;;;;22.17;58.09;94622.13;5011843;28;20226;-27
2023/10/20 03:00:42;;;;;;;4.80;4.40;;;;;;;22.17;58.18;94624.66;5005526;28;20234;-26
2023/10/20 03:03:11;;;;;;;4.80;4.40;;;;;;;22.13;58.28;94612.81;5009779;28;20669;-26
2023/10/20 03:05:38;;;;;;;4.73;4.33;;;;;;;22.17;58.23;94619.56;4986616;28;20199;-28
2023/10/20 03:08:05;;;;;;;4.90;4.50;;;;;;;22.18;58.06;94628.06;5012099;28;20226;-27
2023/10/20 03:10:32;;;;;;;4.57;4.03;;;;;;;22.17;58.04;94626.41;5000947;28;20206;-26
2023/10/20 03:12:58;;;;;;;4.77;4.37;;;;;;;22.18;58.31;94625.53;5001121;28;20293;-30
2023/10/20 03:15:25;;;;;;;4.77;4.37;;;;;;;22.17;58.15;94628.97;5008419;28;20256;-26
2023/10/20 03:17:51;;;;;;;5.10;4.70;;;;;;;22.18;58.26;94628.94;5006424;28;20237;-26
2023/10/20 03:20:24;;;;;;;5.00;4.50;;;;;;;21.93;58.13;94579.09;5013185;28;20441;-28
2023/10/20 03:22:52;;;;;;;5.10;4.70;;;;;;;22.18;58.00;94607.63;5009136;28;20320;-29
2023/10/20 03:25:19;;;;;;;4.90;4.50;;;;;;;22.17;58.34;94619.56;5014277;28;20665;-27
2023/10/20 03:27:45;;;;;;;4.83;4.43;;;;;;;22.18;58.25;94615.28;5005916;28;20229;-30
2023/10/20 03:30:12;;;;;;;5.27;4.77;;;;;;;22.19;58.08;94616.97;5014698;28;20665;-26
2023/10/20 03:32:39;;;;;;;4.67;4.27;;;;;;;22.20;58.11;94613.56;5014175;28;20680;-28
2023/10/20 03:35:07;;;;;;;5.30;4.80;;;;;;;22.20;58.08;94608.44;5006304;28;20213;-28
2023/10/20 03:37:38;;;;;;;4.77;4.37;;;;;;;22.20;58.10;94606.72;5014041;28;20205;-28
2023/10/20 03:40:13;;;;;;;4.80;4.40;;;;;;;22.19;58.12;94593.94;5010445;28;20260;-26
2023/10/20 03:42:44;;;;;;;4.77;4.37;;;;;;;22.20;58.29;94586.25;5010394;28;20229;-26
2023/10/20 03:45:11;;;;;;;4.53;4.13;;;;;;;22.19;57.58;94581.16;5015287;28;20217;-26
2023/10/20 03:47:40;;;;;;;4.97;4.57;;;;;;;22.19;58.24;94574.34;5014429;28;20723;-26
2023/10/20 03:50:14;;;;;;;5.20;4.80;;;;;;;22.19;58.13;94560.69;5008854;28;20210;-28
2023/10/20 03:52:41;;;;;;;4.87;4.47;;;;;;;22.19;58.34;94548.75;5011408;28;20269;-26
2023/10/20 03:55:08;;;;;;;5.37;4.87;;;;;;;22.18;58.14;94549.66;5014808;28;20206;-28
2023/10/20 03:57:35;;;;;;;5.30;4.90;;;;;;;22.19;58.32;94551.31;5015630;28;20230;-26
2023/10/20 04:00:15;;;;;;;5.00;4.60;;;;;;;22.19;58.29;94551.31;5013931;28;20234;-28
2023/10/20 04:02:41;;;;;;;5.43;4.93;;;;;;;22.19;58.32;94547.91;5014654;28;20582;-27
2023/10/20 04:05:08;;;;;;;4.90;4.50;;;;;;;22.19;58.27;94547.91;5014824;28;20202;-28
2023/10/20 04:07:35;;;;;;;5.23;4.83;;;;;;;22.18;58.30;94536.84;5015407;28;20233;-26
2023/10/20 04:10:01;;;;;;;5.97;4.83;;;;;;;22.10;58.25;94520.81;5014412;28;20629;-26
2023/10/20 04:12:28;;;;;;;5.00;4.60;;;;;;;22.18;58.06;94528.34;5014971;28;20222;-26
2023/10/20 04:14:55;;;;;;;5.60;5.10;;;;;;;22.19;57.99;94537.69;5014976;28;20252;-30
2023/10/20 04:17:21;;;;;;;4.93;4.53;;;;;;;22.18;58.26;94529.19;5006573;28;20210;-27
2023/10/20 04:19:49;;;;;;;4.77;4.37;;;;;;;22.19;57.84;94515.50;5002756;28;20293;-27
2023/10/20 04:22:18;;;;;;;4.70;4.30;;;;;;;22.19;58.30;94510.41;5011827;28;20226;-28
2023/10/20 04:24:45;;;;;;;5.00;4.50;;;;;;;22.20;58.16;94495.91;5011322;28;20313;-26
2023/10/20 04:52:37;;;;;;;5.10;4.70;;;;;;;22.20;58.23;94379.06;5009697;28;20230;-29
2023/10/20 04:56:15;;;;;;;7.27;4.73;;;;;;;22.21;58.16;94385.03;5011000;28;20205;-29
2023/10/20 04:57:52;;;;;;;5.47;4.97;;;;;;;22.22;58.06;94379.03;5010585;28;20245;-27
2023/10/20 05:03:15;;;;;;;5.90;5.40;;;;;;;22.20;58.17;94379.06;5006188;28;20306;-31
2023/10/20 05:06:00;;;;;;;8.17;7.37;;;;;;;22.20;57.72;94376.50;5010861;28;20217;-28
2023/10/20 05:08:28;;;;;;;9.93;8.93;;;;;;;22.20;57.00;94378.25;4999764;28;20214;-33
2023/10/20 05:10:55;;;;;;;11.57;10.37;;;;;;;22.19;56.70;94363.75;5007513;28;20296;-30
2023/10/20 05:13:22;;;;;;;12.73;11.43;;;;;;;22.19;56.49;94366.31;5004851;28;20260;-27
2023/10/20 05:15:50;;;;;;;13.97;12.43;;;;;;;22.18;56.37;94351.88;5004718;28;20206;-33
2023/10/20 05:18:17;;;;;;;15.60;14.10;;;;;;;22.19;55.80;94345.84;5006188;28;20209;-27
2023/10/20 05:20:45;;;;;;;14.80;13.23;;;;;;;22.20;55.68;94335.59;5004362;28;20203;-28
2023/10/20 05:23:14;;;;;;;15.77;14.17;;;;;;;22.20;55.47;94342.44;5008424;28;20647;-31
2023/10/20 05:25:47;;;;;;;15.77;14.17;;;;;;;22.19;55.31;94320.28;5010073;28;20684;-28
2023/10/20 05:28:16;;;;;;;17.33;15.53;;;;;;;22.19;55.52;94315.16;5010294;28;20331;-28
2023/10/20 05:30:46;;;;;;;15.80;14.30;;;;;;;22.20;55.61;94311.75;5007528;28;20670;-29
2023/10/20 05:33:12;;;;;;;15.70;14.20;;;;;;;22.20;55.81;94306.66;5008052;28;20668;-28
2023/10/20 05:35:39;;;;;;;13.70;12.37;;;;;;;22.20;56.57;94314.31;5010005;28;20194;-28
2023/10/20 05:38:07;;;;;;;14.47;13.07;;;;;;;22.21;56.31;94321.09;5007850;28;20249;-29
2023/10/20 05:40:35;;;;;;;15.67;14.17;;;;;;;22.21;56.22;94319.41;5004842;28;20449;-27
2023/10/20 05:43:04;;;;;;;12.63;11.33;;;;;;;22.21;56.52;94306.59;5009570;28;20234;-31
2023/10/20 05:45:39;;;;;;;13.47;11.97;;;;;;;22.22;56.67;94298.03;5008444;28;20210;-26
2023/10/20 05:48:07;;;;;;;12.77;11.33;;;;;;;22.23;56.76;94309.13;5009486;28;20205;-26
2023/10/20 05:50:38;;;;;;;11.90;10.70;;;;;;;22.22;56.70;94303.16;5008345;28;20246;-27
2023/10/20 05:53:05;;;;;;;12.20;10.70;;;;;;;22.22;56.86;94297.19;5010735;28;20222;-33
2023/10/20 05:55:32;;;;;;;13.90;12.40;;;;;;;22.20;56.71;94294.66;5010088;28;20207;-35
2023/10/20 05:57:59;;;;;;;13.47;12.17;;;;;;;22.20;56.47;94293.84;5010320;28;20230;-29
2023/10/20 06:00:26;;;;;;;14.83;13.23;;;;;;;22.20;56.54;94292.13;4988930;28;20297;-28
2023/10/20 06:02:53;;;;;;;13.03;11.73;;;;;;;22.20;56.73;94310.03;4994777;28;20223;-30
2023/10/20 06:05:20;;;;;;;13.37;11.97;;;;;;;22.19;56.80;94303.22;4992883;28;20218;-30
2023/10/20 06:07:48;;;;;;;13.43;12.03;;;;;;;22.20;56.90;94302.34;4994701;28;20233;-27
2023/10/20 06:10:21;;;;;;;13.57;12.17;;;;;;;22.21;56.70;94296.38;4994508;28;20209;-30
2023/10/20 06:12:52;;;;;;;13.67;11.87;;;;;;;22.22;56.89;94292.06;4994693;28;20256;-28
2023/10/20 06:15:21;;;;;;;12.93;11.57;;;;;;;22.22;57.01;94292.94;4995671;28;20765;-31
2023/10/20 06:17:52;;;;;;;11.30;10.20;;;;;;;22.22;56.84;94279.28;4994668;28;20234;-31
2023/10/20 06:20:19;;;;;;;11.53;10.43;;;;;;;22.22;56.96;94275.03;4994173;28;20649;-42
2023/10/20 06:22:47;;;;;;;13.13;11.83;;;;;;;22.22;56.85;94280.16;4991907;28;20343;-36
2023/10/20 06:25:13;;;;;;;11.90;10.70;;;;;;;22.22;56.91;94275.03;4999564;28;20205;-26
2023/10/20 06:27:41;;;;;;;11.23;10.23;;;;;;;22.22;56.84;94263.94;4997285;28;20261;-26
2023/10/20 06:32:42;;;;;;;14.60;12.80;;;;;;;22.22;56.12;94225.59;4996119;28;20325;-30
2023/10/20 06:35:09;;;;;;;14.67;12.90;;;;;;;22.17;55.96;94212.09;4995184;28;20225;-30
2023/10/20 06:40:06;;;;;;;13.83;12.53;;;;;;;22.21;56.22;94201.75;4994684;28;20269;-31
2023/10/20 06:42:33;;;;;;;13.03;11.83;;;;;;;22.22;56.59;94198.31;4992880;28;20238;-31
2023/10/20 06:45:02;;;;;;;13.30;12.00;;;;;;;22.23;56.57;94192.28;4993939;28;20241;-31
2023/10/20 06:47:29;;;;;;;12.23;11.03;;;;;;;22.23;56.61;94189.75;4992545;28;20248;-30
2023/10/20 06:49:55;;;;;;;12.00;10.90;;;;;;;22.23;56.57;94181.25;4994137;28;20560;-32
2023/10/20 06:52:22;;;;;;;12.80;11.23;;;;;;;22.23;56.77;94173.56;4994455;28;20509;-35
2023/10/20 06:54:49;;;;;;;12.43;11.23;;;;;;;22.24;56.85;94167.56;4992702;28;20767;-30
2023/10/20 06:57:35;;;;;;;12.23;11.17;;;;;;;22.24;56.83;94152.22;4994075;28;20220;-31
2023/10/20 07:00:03;;;;;;;12.03;10.73;;;;;;;22.24;56.90;94137.72;4992222;28;20207;-34
2023/10/20 07:02:30;;;;;;;11.70;10.57;;;;;;;22.24;56.78;94135.16;4993098;28;20222;-29
2023/10/20 07:04:58;;;;;;;12.30;11.10;;;;;;;22.24;56.94;94137.72;4993876;28;22592;-31
2023/10/20 07:07:24;;;;;;;11.30;10.27;;;;;;;22.24;56.78;94134.31;4993425;28;20308;-28
2023/10/20 07:09:51;;;;;;;11.93;10.70;;;;;;;22.23;56.87;94128.34;4988877;28;20317;-32
2023/10/20 07:12:17;;;;;;;13.77;10.57;;;;;;;22.24;56.85;94116.41;4989819;28;20436;-26
2023/10/20 07:14:44;;;;;;;11.37;10.37;;;;;;;22.23;56.85;94104.53;4991946;28;20207;-30
2023/10/20 07:17:11;;;;;;;11.80;10.67;;;;;;;22.23;56.92;94084.06;4992606;28;20285;-37
2023/10/20 07:19:38;;;;;;;11.17;10.13;;;;;;;22.21;56.83;94071.31;4988734;28;20257;-31
2023/10/20 07:22:05;;;;;;;14.73;10.27;;;;;;;22.22;56.89;94072.13;4990341;28;20230;-33
2023/10/20 07:24:32;;;;;;;11.07;10.07;;;;;;;22.22;56.96;94061.91;4995471;28;20304;-29
2023/10/20 07:26:59;;;;;;;11.53;9.90;;;;;;;22.23;57.03;94061.84;4993039;28;20317;-37
2023/10/20 07:29:26;;;;;;;11.47;10.37;;;;;;;22.23;56.90;94079.75;4991735;28;20653;-34
2023/10/20 07:31:53;;;;;;;11.10;9.70;;;;;;;22.23;56.86;94073.84;4991956;28;20308;-35
2023/10/20 07:34:21;;;;;;;10.20;9.23;;;;;;;22.24;57.08;94066.13;4989597;28;20421;-35
2023/10/20 07:36:47;;;;;;;10.10;9.20;;;;;;;22.24;57.15;94061.00;4992537;28;20342;-31
2023/10/20 07:39:16;;;;;;;11.13;9.67;;;;;;;22.25;57.02;94043.91;4991049;28;20296;-27
2023/10/20 07:41:44;;;;;;;10.43;9.43;;;;;;;22.25;56.96;94031.97;4995244;28;20230;-29
2023/10/20 07:44:15;;;;;;;11.03;9.13;;;;;;;22.25;57.03;94023.44;4994936;28;20214;-35
2023/10/20 07:46:42;;;;;;;10.50;9.33;;;;;;;22.24;57.09;94025.19;4998620;28;20261;-30
2023/10/20 07:49:12;;;;;;;10.13;9.07;;;;;;;22.11;57.05;94007.69;4993760;28;20222;-28
2023/10/20 07:51:39;;;;;;;10.63;9.63;;;;;;;22.23;56.88;94040.59;4996312;28;21488;-29
2023/10/20 07:54:07;;;;;;;9.93;9.03;;;;;;;22.24;57.00;94050.78;4996008;28;20206;-30
2023/10/20 07:56:33;;;;;;;9.97;8.97;;;;;;;22.25;56.95;94038.81;4996527;28;20298;-29
2023/10/20 07:59:00;;;;;;;10.23;9.33;;;;;;;22.23;56.88;94048.25;4996787;28;20208;-30
2023/10/20 08:01:26;;;;;;;9.47;8.53;;;;;;;22.16;57.03;94026.28;4995430;28;20606;-28
2023/10/20 08:03:53;;;;;;;9.70;8.80;;;;;;;22.23;57.12;94043.13;4994229;28;20211;-30
2023/10/20 08:06:20;;;;;;;9.97;9.07;;;;;;;22.24;57.20;94039.69;5000186;28;20229;-32
2023/10/20 08:08:47;;;;;;;9.60;8.67;;;;;;;22.24;57.04;94020.09;5001460;28;20226;-29
2023/10/20 08:11:14;;;;;;;10.40;9.40;;;;;;;22.24;57.08;94019.22;4999700;28;20269;-32
2023/10/20 08:13:41;;;;;;;11.30;8.70;;;;;;;22.25;57.25;94031.13;4998116;28;20206;-33
2023/10/20 08:16:07;;;;;;;9.83;8.93;;;;;;;22.25;56.52;94026.88;5000546;28;20576;-27
2023/10/20 08:18:34;;;;;;;8.23;7.50;;;;;;;22.27;57.12;94014.03;5007772;28;20210;-27
2023/10/20 08:21:10;;;;;;;10.13;8.80;;;;;;;22.26;57.08;94008.06;5011111;28;20608;-27
2023/10/20 08:23:37;;;;;;;9.03;8.13;;;;;;;22.26;57.19;94009.81;5011976;28;20206;-26
2023/10/20 08:26:04;;;;;;;9.10;8.30;;;;;;;22.24;57.21;94032.03;5011651;28;20206;-28
2023/10/20 08:28:31;;;;;;;9.37;8.40;;;;;;;22.27;57.17;94035.34;5011962;28;20226;-30
2023/10/20 08:31:08;;;;;;;9.93;8.77;;;;;;;22.04;57.06;93985.72;5007499;28;20206;-29
2023/10/20 08:33:35;;;;;;;9.87;8.33;;;;;;;22.28;57.38;94034.44;5008521;28;20206;-30
2023/10/20 08:36:12;;;;;;;9.40;8.43;;;;;;;22.18;57.38;94009.19;5009523;28;20573;-27
2023/10/20 08:38:43;;;;;;;8.17;7.40;;;;;;;22.29;57.46;94012.28;5009158;28;20317;-29
2023/10/20 08:41:13;;;;;;;9.17;8.30;;;;;;;22.30;57.30;94036.97;5012127;28;21010;-29
2023/10/20 08:43:41;;;;;;;9.63;8.57;;;;;;;22.29;57.28;94004.59;5009133;28;20222;-28
2023/10/20 08:46:08;;;;;;;9.63;8.57;;;;;;;22.29;57.38;94028.44;5010975;28;20229;-29
2023/10/20 08:48:41;;;;;;;8.63;7.80;;;;;;;22.29;57.58;94035.28;5009938;28;20225;-32
2023/10/20 08:51:08;;;;;;;10.23;7.90;;;;;;;22.29;57.35;94038.66;5005196;28;20303;-27
2023/10/20 08:53:36;;;;;;;8.30;7.50;;;;;;;22.30;57.27;94042.91;5008361;28;20221;-32
2023/10/20 08:56:04;;;;;;;9.00;8.00;;;;;;;22.29;57.45;94048.91;5015960;28;20206;-36
2023/10/20 08:58:30;;;;;;;9.30;7.73;;;;;;;22.29;57.39;94033.56;5010596;28;20282;-29
2023/10/20 09:00:57;;;;;;;9.23;8.03;;;;;;;22.31;57.26;94041.19;5011400;28;20199;-26
2023/10/20 09:03:40;;;;;;;11.07;7.30;;;;;;;22.30;57.27;94042.91;5006748;28;20206;-28
2023/10/20 09:06:14;;;;;;;9.30;8.03;;;;;;;22.30;57.36;94047.19;5001234;28;20282;-26
2023/10/20 09:08:43;;;;;;;8.70;7.90;;;;;;;22.30;57.44;94030.13;5010481;28;20222;-29
2023/10/20 09:11:10;;;;;;;9.30;8.40;;;;;;;22.30;57.28;94031.84;5007207;28;20665;-29
2023/10/20 09:13:39;;;;;;;10.40;7.53;;;;;;;22.31;57.33;94057.38;5008657;28;20202;-28
2023/10/20 09:16:07;;;;;;;8.53;7.70;;;;;;;22.30;57.32;94034.41;5007223;28;20198;-28
2023/10/20 09:18:44;;;;;;;8.67;7.50;;;;;;;22.30;57.34;94030.13;5010360;28;20230;-28
2023/10/20 09:21:13;;;;;;;8.23;7.50;;;;;;;22.30;57.22;94016.50;5008389;28;20198;-30
2023/10/20 09:23:40;;;;;;;9.63;7.63;;;;;;;22.27;57.23;94014.03;5003356;28;20224;-27
2023/10/20 09:26:07;;;;;;;8.50;7.47;;;;;;;22.29;57.23;94023.31;5002609;28;20218;-28
2023/10/20 09:28:33;;;;;;;9.13;7.20;;;;;;;22.29;57.30;93990.06;5003418;28;20226;-27
2023/10/20 09:31:03;;;;;;;9.13;7.17;;;;;;;22.29;57.33;93996.94;4996145;28;20206;-27
2023/10/20 09:33:29;;;;;;;8.73;6.63;;;;;;;22.29;57.36;93996.94;4992719;28;20210;-28
2023/10/20 09:35:56;;;;;;;8.23;7.43;;;;;;;22.26;57.39;93995.28;5005630;28;20214;-33
2023/10/20 09:38:25;;;;;;;9.03;7.43;;;;;;;22.28;57.49;94006.31;4987657;28;20316;-33
2023/10/20 09:40:59;;;;;;;8.10;6.90;;;;;;;22.27;57.60;94008.91;5006447;28;20206;-27
2023/10/20 09:43:35;;;;;;;9.37;6.97;;;;;;;22.28;57.42;94000.34;4985862;28;20681;-29
2023/10/20 09:46:28;;;;;;;8.63;7.73;;;;;;;22.28;57.60;93996.06;4998599;28;20202;-28
2023/10/20 09:48:56;;;;;;;8.20;7.40;;;;;;;22.28;57.65;93985.84;5003219;28;20226;-34
2023/10/20 09:51:23;;;;;;;15.87;7.70;;;;;;;22.25;57.76;93983.38;5010532;28;20233;-30
2023/10/20 09:53:49;;;;;;;14.33;9.30;;;;;;;22.27;57.64;93968.00;5001361;28;20214;-26
2023/10/20 09:56:16;;;;;;;17.93;11.30;;;;;;;22.25;57.71;93964.63;4986558;28;20229;-31
2023/10/20 09:58:43;;;;;;;18.23;11.00;;;;;;;22.28;57.79;93962.84;5002741;28;20199;-26
2023/10/20 10:01:13;;;;;;;17.40;10.60;;;;;;;22.29;57.67;93968.78;5005426;28;20252;-26
2023/10/20 10:03:42;;;;;;;13.73;9.93;;;;;;;22.27;57.83;93980.78;4997247;28;20222;-27
2023/10/20 10:06:12;;;;;;;15.63;10.17;;;;;;;22.27;57.79;93989.31;4987704;28;20349;-34
2023/10/20 10:08:40;;;;;;;13.93;9.67;;;;;;;22.30;57.70;94001.16;4994955;28;20220;-26
2023/10/20 10:11:20;;;;;;;16.37;9.30;;;;;;;22.29;57.64;94007.16;4993481;28;20355;-27
2023/10/20 10:14:01;;;;;;;13.77;9.37;;;;;;;22.29;57.69;94027.63;4991858;28;20217;-32
2023/10/20 10:16:28;;;;;;;13.63;9.90;;;;;;;22.29;57.91;94031.00;4994302;28;20226;-26
2023/10/20 10:18:55;;;;;;;11.70;9.60;;;;;;;22.29;57.95;94045.53;4997357;28;20211;-28
2023/10/20 10:21:29;;;;;;;15.10;9.57;;;;;;;22.28;57.70;94042.13;4990941;28;20305;-28
2023/10/20 10:24:16;;;;;;;15.07;9.87;;;;;;;22.28;57.84;94054.91;4992383;28;20211;-29
2023/10/20 10:26:50;;;;;;;13.90;10.50;;;;;;;22.28;57.92;94054.06;4993575;28;20210;-27
2023/10/20 10:29:18;;;;;;;13.63;10.23;;;;;;;22.27;57.83;94043.00;4995460;28;20314;-30
2023/10/20 10:31:44;;;;;;;14.67;9.43;;;;;;;22.26;57.79;94041.31;4991088;28;20226;-29
2023/10/20 10:34:40;;;;;;;15.03;10.47;;;;;;;22.27;57.70;94045.56;4994211;28;20210;-34
2023/10/20 10:37:08;;;;;;;12.87;9.20;;;;;;;22.29;57.70;94055.75;4995916;28;20617;-36
2023/10/20 10:39:34;;;;;;;14.83;9.63;;;;;;;22.28;57.80;94072.81;4994543;28;20234;-36
2023/10/20 10:42:02;;;;;;;15.77;9.33;;;;;;;22.29;57.72;94074.47;4991274;28;20796;-31
2023/10/20 10:44:35;;;;;;;15.17;9.40;;;;;;;22.30;57.87;94075.31;4992069;28;20210;-47
2023/10/20 10:47:06;;;;;;;13.97;9.77;;;;;;;22.30;57.85;94100.91;4995447;28;20202;-38
2023/10/20 10:49:33;;;;;;;11.90;9.07;;;;;;;22.30;57.77;94175.06;4993352;28;21615;-32
2023/10/20 10:52:07;;;;;;;13.07;9.40;;;;;;;22.30;57.77;94113.69;4991065;28;20321;-30
2023/10/20 10:54:34;;;;;;;15.27;9.53;;;;;;;22.30;57.81;94172.53;4996451;28;20284;-33
2023/10/20 10:57:01;;;;;;;12.10;9.53;;;;;;;22.29;57.84;94163.19;4991853;28;20213;-28
2023/10/20 10:59:30;;;;;;;14.20;8.63;;;;;;;22.26;57.73;94156.41;4994932;28;20368;-31
2023/10/20 11:01:57;;;;;;;10.40;8.90;;;;;;;22.27;57.85;94190.50;4989471;28;20233;-28
2023/10/20 11:04:23;;;;;;;11.70;9.10;;;;;;;22.29;57.78;94192.13;4973642;28;20214;-27
2023/10/20 11:06:50;;;;;;;10.37;8.43;;;;;;;22.30;57.67;94201.50;4993802;28;20206;-37
2023/10/20 11:09:20;;;;;;;11.33;9.07;;;;;;;22.32;57.72;94191.25;5008806;28;20272;-32
2023/10/20 11:11:51;;;;;;;13.23;9.37;;;;;;;22.32;57.83;94168.22;5008425;28;20264;-30
2023/10/20 11:14:18;;;;;;;12.27;8.43;;;;;;;22.31;57.70;94161.41;5001599;28;20209;-27
2023/10/20 11:16:47;;;;;;;11.40;8.83;;;;;;;22.33;57.78;94165.63;5005526;28;20260;-31
2023/10/20 11:19:14;;;;;;;10.47;8.63;;;;;;;22.32;57.67;94157.97;5005759;28;20202;-26
2023/10/20 11:24:26;;;;;;;13.77;8.47;;;;;;;22.33;57.75;94155.38;4964956;28;20768;-22
2023/10/20 11:26:58;;;;;;;10.83;8.30;;;;;;;22.32;57.76;94166.47;4966692;28;20587;-24
2023/10/20 11:29:26;;;;;;;12.20;8.77;;;;;;;22.33;57.86;94198.03;4963547;28;20227;-23
2023/10/20 11:31:54;;;;;;;10.57;8.13;;;;;;;22.32;57.79;94204.84;4965500;28;20299;-23
2023/10/20 11:34:20;;;;;;;11.40;8.60;;;;;;;22.31;57.92;94189.53;4954226;28;20207;-23
2023/10/20 11:36:47;;;;;;;14.37;9.03;;;;;;;22.31;57.79;94200.63;4958557;28;20662;-23
2023/10/20 11:39:15;;;;;;;11.60;8.87;;;;;;;22.31;57.97;94210.84;4953542;28;20207;-23
2023/10/20 11:41:42;;;;;;;11.50;8.67;;;;;;;22.30;57.74;94231.34;4968733;28;20235;-23
2023/10/20 11:44:08;;;;;;;10.00;8.33;;;;;;;22.30;57.88;94232.19;4937932;28;20208;-23
2023/10/20 11:46:35;;;;;;;10.40;8.40;;;;;;;21.18;57.79;94031.44;4958932;28;20224;-24
2023/10/20 11:49:02;;;;;;;8.90;8.00;;;;;;;22.31;57.71;94212.56;4955277;28;20252;-23
2023/10/20 11:51:28;;;;;;;11.10;8.13;;;;;;;22.30;57.76;94214.28;4953759;28;20251;-26
2023/10/20 11:53:55;;;;;;;10.60;8.00;;;;;;;22.30;57.83;94218.56;4957661;28;20231;-23
2023/10/20 11:56:22;;;;;;;10.13;8.27;;;;;;;22.31;57.85;94227.91;4959175;28;20211;-23
2023/10/20 11:58:48;;;;;;;10.87;8.33;;;;;;;22.30;57.78;94229.66;4959977;28;20287;-23
2023/10/20 12:01:15;;;;;;;9.43;8.30;;;;;;;22.30;57.73;94213.44;4953478;28;20287;-23
2023/10/20 12:03:42;;;;;;;9.77;7.63;;;;;;;22.31;57.76;94227.91;4963352;28;20250;-23
2023/10/20 12:06:09;;;;;;;10.87;7.90;;;;;;;22.30;57.90;94227.09;4952896;28;20270;-24
2023/10/20 12:08:35;;;;;;;9.93;8.00;;;;;;;22.30;57.94;94216.00;4960002;28;20208;-23
2023/10/20 12:11:02;;;;;;;10.30;8.27;;;;;;;22.30;57.81;94229.66;4952451;28;20215;-23